createdAt,value
2023-10-23T00:04:01.917Z,92.2
2023-10-23T00:24:01.690Z,92.2
2023-10-23T00:35:31.000Z,82
2023-10-23T00:44:01.444Z,97.3
2023-10-23T01:04:01.199Z,87.1
2023-10-23T01:24:00.953Z,74.3
2023-10-23T01:44:00.721Z,87.1
2023-10-23T02:04:00.468Z,79.4
2023-10-23T02:24:00.226Z,64.1
2023-10-23T02:43:59.996Z,59
2023-10-23T03:03:59.746Z,120.4
2023-10-23T03:23:59.509Z,48.7
2023-10-23T03:43:59.264Z,12.9
2023-10-23T04:03:59.016Z,2.6
2023-10-23T04:23:58.782Z,642.6
2023-10-23T04:43:58.549Z,632.4
2023-10-23T05:03:58.293Z,642.6
2023-10-23T05:23:58.068Z,604.2
2023-10-23T05:43:57.820Z,588.9
2023-10-23T06:03:57.572Z,576.1
2023-10-23T06:43:57.099Z,570.9
2023-10-23T07:03:56.842Z,570.9
2023-10-23T07:23:56.610Z,570.9
2023-10-23T07:43:56.363Z,576.1
2023-10-23T08:03:56.123Z,586.3
2023-10-23T08:23:55.879Z,604.2
2023-10-23T08:43:55.644Z,632.4
2023-10-23T09:03:55.402Z,30.8
2023-10-23T09:23:55.153Z,115.3
2023-10-23T09:43:54.911Z,261.2
2023-10-23T10:03:54.680Z,588.9
2023-10-23T10:23:54.432Z,97.4
2023-10-23T10:43:54.198Z,69.2
2023-10-23T11:23:53.719Z,102.5
2023-10-23T11:43:53.482Z,74.3
2023-10-23T12:03:53.225Z,10.3
2023-10-23T12:23:52.979Z,604.2
2023-10-23T12:43:52.737Z,550.5
2023-10-23T13:03:52.513Z,496.7
2023-10-23T13:23:52.259Z,440.4
2023-10-23T13:43:52.017Z,409.7
2023-10-23T14:03:51.772Z,399.4
2023-10-23T14:23:51.534Z,530
2023-10-23T14:43:51.293Z,519.8
2023-10-23T15:03:51.054Z,435.3
2023-10-23T15:23:50.819Z,355.9
2023-10-23T15:43:50.561Z,309.8
2023-10-23T16:03:50.333Z,266.3
2023-10-23T16:23:50.081Z,222.8
2023-10-23T16:43:49.835Z,189.5
2023-10-23T17:03:49.613Z,163.9
2023-10-23T17:23:49.353Z,143.4
2023-10-23T17:43:49.127Z,133.2
2023-10-23T18:03:48.879Z,117.8
2023-10-23T18:23:48.635Z,102.5
2023-10-23T18:43:48.400Z,87.1
2023-10-23T19:03:48.147Z,79.4
2023-10-23T19:23:47.911Z,74.3
2023-10-23T20:23:47.167Z,64.1
2023-10-23T20:43:46.927Z,56.4
2023-10-23T21:03:46.681Z,66.6
2023-10-23T21:23:46.440Z,59
2023-10-23T21:43:46.202Z,66.6
2023-10-23T22:03:45.952Z,64.1
2023-10-23T22:23:45.720Z,64.1
2023-10-23T22:43:45.475Z,59
2023-10-23T23:03:45.236Z,59
2023-10-23T23:23:44.998Z,51.3
2023-10-23T23:43:44.741Z,51.3
